sensor_id;sensor_type;location;lat;lon;timestamp;temperature;humidity
32147;DHT22;32190;49.112;8.598;2023-12-07T00:04:46;9.00;64.30
32147;DHT22;32190;49.112;8.598;2023-12-07T00:10:37;8.90;64.30
32147;DHT22;32190;49.112;8.598;2023-12-07T00:16:27;8.90;64.20
32147;DHT22;32190;49.112;8.598;2023-12-07T00:22:18;8.90;64.10
32147;DHT22;32190;49.112;8.598;2023-12-07T00:28:09;8.90;64.10
32147;DHT22;32190;49.112;8.598;2023-12-07T00:33:59;8.80;64.20
32147;DHT22;32190;49.112;8.598;2023-12-07T00:39:50;8.90;64.20
32147;DHT22;32190;49.112;8.598;2023-12-07T00:45:40;8.90;64.20
32147;DHT22;32190;49.112;8.598;2023-12-07T00:51:31;8.80;64.20
32147;DHT22;32190;49.112;8.598;2023-12-07T00:57:22;8.90;64.20
32147;DHT22;32190;49.112;8.598;2023-12-07T01:03:12;8.80;64.10
32147;DHT22;32190;49.112;8.598;2023-12-07T01:09:03;8.80;64.00
32147;DHT22;32190;49.112;8.598;2023-12-07T01:14:54;8.80;63.90
32147;DHT22;32190;49.112;8.598;2023-12-07T01:20:44;8.80;63.90
32147;DHT22;32190;49.112;8.598;2023-12-07T01:26:35;8.70;63.80
32147;DHT22;32190;49.112;8.598;2023-12-07T01:32:25;8.70;63.70
32147;DHT22;32190;49.112;8.598;2023-12-07T01:38:16;8.60;63.80
32147;DHT22;32190;49.112;8.598;2023-12-07T01:44:06;8.50;63.80
32147;DHT22;32190;49.112;8.598;2023-12-07T01:49:57;8.60;63.90
32147;DHT22;32190;49.112;8.598;2023-12-07T01:55:49;8.50;63.90
32147;DHT22;32190;49.112;8.598;2023-12-07T02:01:40;8.50;64.00
32147;DHT22;32190;49.112;8.598;2023-12-07T02:07:30;8.40;64.10
32147;DHT22;32190;49.112;8.598;2023-12-07T02:13:21;8.40;64.10
32147;DHT22;32190;49.112;8.598;2023-12-07T02:25:10;8.40;64.10
32147;DHT22;32190;49.112;8.598;2023-12-07T02:31:01;8.40;63.90
32147;DHT22;32190;49.112;8.598;2023-12-07T02:36:53;8.30;63.90
32147;DHT22;32190;49.112;8.598;2023-12-07T02:42:47;8.30;63.90
32147;DHT22;32190;49.112;8.598;2023-12-07T02:48:38;8.20;63.80
32147;DHT22;32190;49.112;8.598;2023-12-07T02:54:29;8.20;63.90
32147;DHT22;32190;49.112;8.598;2023-12-07T03:00:19;8.10;63.60
32147;DHT22;32190;49.112;8.598;2023-12-07T03:06:12;8.10;63.70
32147;DHT22;32190;49.112;8.598;2023-12-07T03:12:02;8.10;63.90
32147;DHT22;32190;49.112;8.598;2023-12-07T03:17:53;8.00;63.90
32147;DHT22;32190;49.112;8.598;2023-12-07T03:23:44;8.00;63.90
32147;DHT22;32190;49.112;8.598;2023-12-07T03:29:34;8.00;64.00
32147;DHT22;32190;49.112;8.598;2023-12-07T03:35:25;8.00;64.10
32147;DHT22;32190;49.112;8.598;2023-12-07T03:41:15;8.00;64.20
32147;DHT22;32190;49.112;8.598;2023-12-07T03:47:06;7.90;64.00
32147;DHT22;32190;49.112;8.598;2023-12-07T03:52:56;7.90;63.90
32147;DHT22;32190;49.112;8.598;2023-12-07T03:58:47;7.80;63.80
32147;DHT22;32190;49.112;8.598;2023-12-07T04:04:37;7.80;63.80
32147;DHT22;32190;49.112;8.598;2023-12-07T04:10:28;7.70;63.70
32147;DHT22;32190;49.112;8.598;2023-12-07T04:16:19;7.70;63.70
32147;DHT22;32190;49.112;8.598;2023-12-07T04:22:10;7.70;63.80
32147;DHT22;32190;49.112;8.598;2023-12-07T04:28:00;7.60;63.70
32147;DHT22;32190;49.112;8.598;2023-12-07T04:33:51;7.60;63.80
32147;DHT22;32190;49.112;8.598;2023-12-07T04:39:41;7.50;63.70
32147;DHT22;32190;49.112;8.598;2023-12-07T04:45:32;7.50;63.80
32147;DHT22;32190;49.112;8.598;2023-12-07T04:51:22;7.50;63.90
32147;DHT22;32190;49.112;8.598;2023-12-07T04:57:13;7.40;63.70
32147;DHT22;32190;49.112;8.598;2023-12-07T05:03:03;7.40;63.80
32147;DHT22;32190;49.112;8.598;2023-12-07T05:08:54;7.30;63.70
32147;DHT22;32190;49.112;8.598;2023-12-07T05:14:45;7.30;63.70
32147;DHT22;32190;49.112;8.598;2023-12-07T05:20:35;7.20;63.50
32147;DHT22;32190;49.112;8.598;2023-12-07T05:26:29;7.10;63.40
32147;DHT22;32190;49.112;8.598;2023-12-07T05:32:23;7.10;63.60
32147;DHT22;32190;49.112;8.598;2023-12-07T05:38:13;7.00;63.20
32147;DHT22;32190;49.112;8.598;2023-12-07T05:44:04;6.90;63.40
32147;DHT22;32190;49.112;8.598;2023-12-07T05:49:55;6.90;63.80
32147;DHT22;32190;49.112;8.598;2023-12-07T05:55:48;6.90;63.60
32147;DHT22;32190;49.112;8.598;2023-12-07T06:01:38;6.80;63.30
32147;DHT22;32190;49.112;8.598;2023-12-07T06:07:29;6.80;63.20
32147;DHT22;32190;49.112;8.598;2023-12-07T06:13:20;6.70;63.70
32147;DHT22;32190;49.112;8.598;2023-12-07T06:19:10;6.70;64.00
32147;DHT22;32190;49.112;8.598;2023-12-07T06:25:01;6.70;64.10
32147;DHT22;32190;49.112;8.598;2023-12-07T06:30:51;6.70;64.10
32147;DHT22;32190;49.112;8.598;2023-12-07T06:36:42;6.70;63.80
32147;DHT22;32190;49.112;8.598;2023-12-07T06:42:34;6.60;63.60
32147;DHT22;32190;49.112;8.598;2023-12-07T06:48:24;6.60;63.70
32147;DHT22;32190;49.112;8.598;2023-12-07T06:54:15;6.50;63.70
32147;DHT22;32190;49.112;8.598;2023-12-07T07:00:06;6.50;63.80
32147;DHT22;32190;49.112;8.598;2023-12-07T07:06:00;6.50;63.70
32147;DHT22;32190;49.112;8.598;2023-12-07T07:11:51;6.40;63.60
32147;DHT22;32190;49.112;8.598;2023-12-07T07:17:42;6.40;63.80
32147;DHT22;32190;49.112;8.598;2023-12-07T07:23:34;6.40;64.00
32147;DHT22;32190;49.112;8.598;2023-12-07T07:29:25;6.40;64.00
32147;DHT22;32190;49.112;8.598;2023-12-07T07:35:15;6.40;63.90
32147;DHT22;32190;49.112;8.598;2023-12-07T07:41:06;6.30;63.70
32147;DHT22;32190;49.112;8.598;2023-12-07T07:46:57;6.30;63.70
32147;DHT22;32190;49.112;8.598;2023-12-07T07:52:47;6.20;63.60
32147;DHT22;32190;49.112;8.598;2023-12-07T07:58:38;6.20;63.70
32147;DHT22;32190;49.112;8.598;2023-12-07T08:04:29;6.20;63.90
32147;DHT22;32190;49.112;8.598;2023-12-07T08:10:19;6.20;63.90
32147;DHT22;32190;49.112;8.598;2023-12-07T08:16:10;6.20;63.80
32147;DHT22;32190;49.112;8.598;2023-12-07T08:22:01;6.20;63.90
32147;DHT22;32190;49.112;8.598;2023-12-07T08:27:51;6.10;63.90
32147;DHT22;32190;49.112;8.598;2023-12-07T08:33:42;6.10;63.90
32147;DHT22;32190;49.112;8.598;2023-12-07T08:39:32;6.10;63.90
32147;DHT22;32190;49.112;8.598;2023-12-07T08:45:23;6.10;64.70
32147;DHT22;32190;49.112;8.598;2023-12-07T08:51:14;6.10;64.10
32147;DHT22;32190;49.112;8.598;2023-12-07T08:57:04;6.10;64.00
32147;DHT22;32190;49.112;8.598;2023-12-07T09:02:55;6.10;64.00
32147;DHT22;32190;49.112;8.598;2023-12-07T09:08:46;6.10;64.00
32147;DHT22;32190;49.112;8.598;2023-12-07T09:14:37;6.10;64.10
32147;DHT22;32190;49.112;8.598;2023-12-07T09:20:27;6.10;64.20
32147;DHT22;32190;49.112;8.598;2023-12-07T09:26:18;6.20;64.30
32147;DHT22;32190;49.112;8.598;2023-12-07T09:32:12;6.30;64.50
32147;DHT22;32190;49.112;8.598;2023-12-07T09:38:03;6.40;64.60
32147;DHT22;32190;49.112;8.598;2023-12-07T09:43:54;6.50;64.60
32147;DHT22;32190;49.112;8.598;2023-12-07T09:49:45;6.60;64.40
32147;DHT22;32190;49.112;8.598;2023-12-07T09:55:36;6.70;64.50
32147;DHT22;32190;49.112;8.598;2023-12-07T10:01:30;6.80;64.40
32147;DHT22;32190;49.112;8.598;2023-12-07T10:07:32;6.90;64.40
32147;DHT22;32190;49.112;8.598;2023-12-07T10:13:24;6.90;64.30
32147;DHT22;32190;49.112;8.598;2023-12-07T10:19:16;7.00;64.40
32147;DHT22;32190;49.112;8.598;2023-12-07T10:25:12;7.00;64.30
32147;DHT22;32190;49.112;8.598;2023-12-07T10:31:02;7.10;64.40
32147;DHT22;32190;49.112;8.598;2023-12-07T10:36:54;7.10;64.40
32147;DHT22;32190;49.112;8.598;2023-12-07T10:42:48;7.20;64.50
32147;DHT22;32190;49.112;8.598;2023-12-07T10:48:39;7.20;64.40
32147;DHT22;32190;49.112;8.598;2023-12-07T10:54:41;7.30;64.50
32147;DHT22;32190;49.112;8.598;2023-12-07T11:00:34;7.30;64.50
32147;DHT22;32190;49.112;8.598;2023-12-07T11:06:24;7.40;64.50
32147;DHT22;32190;49.112;8.598;2023-12-07T11:12:28;7.40;64.50
32147;DHT22;32190;49.112;8.598;2023-12-07T11:18:26;7.50;64.40
32147;DHT22;32190;49.112;8.598;2023-12-07T11:24:17;7.60;64.40
32147;DHT22;32190;49.112;8.598;2023-12-07T11:30:08;7.60;64.30
32147;DHT22;32190;49.112;8.598;2023-12-07T11:36:02;7.70;64.30
32147;DHT22;32190;49.112;8.598;2023-12-07T11:41:54;7.70;64.30
32147;DHT22;32190;49.112;8.598;2023-12-07T11:47:46;7.70;64.20
32147;DHT22;32190;49.112;8.598;2023-12-07T11:53:38;7.80;64.30
32147;DHT22;32190;49.112;8.598;2023-12-07T11:59:29;7.80;64.20
32147;DHT22;32190;49.112;8.598;2023-12-07T12:05:20;7.80;64.10
32147;DHT22;32190;49.112;8.598;2023-12-07T12:11:10;7.80;64.00
32147;DHT22;32190;49.112;8.598;2023-12-07T12:17:01;7.80;64.00
32147;DHT22;32190;49.112;8.598;2023-12-07T12:22:52;7.90;64.00
32147;DHT22;32190;49.112;8.598;2023-12-07T12:28:45;7.90;63.90
32147;DHT22;32190;49.112;8.598;2023-12-07T12:34:36;7.90;63.90
32147;DHT22;32190;49.112;8.598;2023-12-07T12:40:27;8.00;63.80
32147;DHT22;32190;49.112;8.598;2023-12-07T12:46:20;8.00;63.50
32147;DHT22;32190;49.112;8.598;2023-12-07T12:52:10;8.00;63.60
32147;DHT22;32190;49.112;8.598;2023-12-07T12:58:01;8.10;63.40
32147;DHT22;32190;49.112;8.598;2023-12-07T13:03:54;8.10;63.20
32147;DHT22;32190;49.112;8.598;2023-12-07T13:09:45;8.10;63.20
32147;DHT22;32190;49.112;8.598;2023-12-07T13:15:36;8.20;63.20
32147;DHT22;32190;49.112;8.598;2023-12-07T13:21:26;8.20;63.20
32147;DHT22;32190;49.112;8.598;2023-12-07T13:27:17;8.20;62.90
32147;DHT22;32190;49.112;8.598;2023-12-07T13:33:08;8.20;62.90
32147;DHT22;32190;49.112;8.598;2023-12-07T13:39:17;8.20;63.00
32147;DHT22;32190;49.112;8.598;2023-12-07T13:45:11;8.20;62.70
32147;DHT22;32190;49.112;8.598;2023-12-07T13:51:05;8.20;63.00
32147;DHT22;32190;49.112;8.598;2023-12-07T13:56:56;8.20;63.00
32147;DHT22;32190;49.112;8.598;2023-12-07T14:02:47;8.30;63.10
32147;DHT22;32190;49.112;8.598;2023-12-07T14:08:40;8.40;63.00
32147;DHT22;32190;49.112;8.598;2023-12-07T14:14:31;8.40;63.00
32147;DHT22;32190;49.112;8.598;2023-12-07T14:20:25;8.40;62.90
32147;DHT22;32190;49.112;8.598;2023-12-07T14:26:18;8.40;62.40
32147;DHT22;32190;49.112;8.598;2023-12-07T14:32:08;8.40;62.40
32147;DHT22;32190;49.112;8.598;2023-12-07T14:38:03;8.40;62.20
32147;DHT22;32190;49.112;8.598;2023-12-07T14:44:04;8.40;62.40
32147;DHT22;32190;49.112;8.598;2023-12-07T14:49:55;8.30;62.40
32147;DHT22;32190;49.112;8.598;2023-12-07T14:55:53;8.30;62.40
32147;DHT22;32190;49.112;8.598;2023-12-07T15:01:44;8.20;62.40
32147;DHT22;32190;49.112;8.598;2023-12-07T15:07:57;8.20;62.30
32147;DHT22;32190;49.112;8.598;2023-12-07T15:13:48;8.10;62.30
32147;DHT22;32190;49.112;8.598;2023-12-07T15:19:38;8.10;62.30
32147;DHT22;32190;49.112;8.598;2023-12-07T15:25:29;8.00;62.30
32147;DHT22;32190;49.112;8.598;2023-12-07T15:31:20;7.90;62.30
32147;DHT22;32190;49.112;8.598;2023-12-07T15:37:10;7.90;62.40
32147;DHT22;32190;49.112;8.598;2023-12-07T15:49:27;7.70;62.40
32147;DHT22;32190;49.112;8.598;2023-12-07T15:55:17;7.60;62.20
32147;DHT22;32190;49.112;8.598;2023-12-07T16:01:08;7.60;62.30
32147;DHT22;32190;49.112;8.598;2023-12-07T16:07:09;7.50;62.40
32147;DHT22;32190;49.112;8.598;2023-12-07T16:13:20;7.40;62.20
32147;DHT22;32190;49.112;8.598;2023-12-07T16:19:18;7.40;62.40
32147;DHT22;32190;49.112;8.598;2023-12-07T16:25:25;7.30;62.60
32147;DHT22;32190;49.112;8.598;2023-12-07T16:31:19;7.30;62.60
32147;DHT22;32190;49.112;8.598;2023-12-07T16:37:27;7.30;62.40
32147;DHT22;32190;49.112;8.598;2023-12-07T16:43:27;7.20;62.30
32147;DHT22;32190;49.112;8.598;2023-12-07T16:49:17;7.10;62.50
32147;DHT22;32190;49.112;8.598;2023-12-07T16:55:08;7.10;62.40
32147;DHT22;32190;49.112;8.598;2023-12-07T17:00:59;7.10;62.30
32147;DHT22;32190;49.112;8.598;2023-12-07T17:06:50;7.00;62.30
32147;DHT22;32190;49.112;8.598;2023-12-07T17:12:41;6.90;62.30
32147;DHT22;32190;49.112;8.598;2023-12-07T17:18:32;6.90;62.50
32147;DHT22;32190;49.112;8.598;2023-12-07T17:24:22;6.80;62.50
32147;DHT22;32190;49.112;8.598;2023-12-07T17:30:13;6.80;62.50
32147;DHT22;32190;49.112;8.598;2023-12-07T17:36:04;6.80;62.50
32147;DHT22;32190;49.112;8.598;2023-12-07T17:41:55;6.70;62.00
32147;DHT22;32190;49.112;8.598;2023-12-07T17:47:45;6.60;62.40
32147;DHT22;32190;49.112;8.598;2023-12-07T17:53:39;6.60;62.30
32147;DHT22;32190;49.112;8.598;2023-12-07T17:59:29;6.40;61.80
32147;DHT22;32190;49.112;8.598;2023-12-07T18:05:20;6.40;61.80
32147;DHT22;32190;49.112;8.598;2023-12-07T18:11:23;6.20;61.70
32147;DHT22;32190;49.112;8.598;2023-12-07T18:17:14;6.10;61.70
32147;DHT22;32190;49.112;8.598;2023-12-07T18:23:10;6.10;61.70
32147;DHT22;32190;49.112;8.598;2023-12-07T18:29:05;5.90;61.40
32147;DHT22;32190;49.112;8.598;2023-12-07T18:34:59;5.80;61.20
32147;DHT22;32190;49.112;8.598;2023-12-07T18:40:53;5.70;61.20
32147;DHT22;32190;49.112;8.598;2023-12-07T18:46:55;5.50;60.90
32147;DHT22;32190;49.112;8.598;2023-12-07T18:52:45;5.30;61.20
32147;DHT22;32190;49.112;8.598;2023-12-07T18:58:36;5.30;61.40
32147;DHT22;32190;49.112;8.598;2023-12-07T19:04:30;5.20;61.30
32147;DHT22;32190;49.112;8.598;2023-12-07T19:10:21;5.10;61.20
32147;DHT22;32190;49.112;8.598;2023-12-07T19:16:11;5.10;61.30
32147;DHT22;32190;49.112;8.598;2023-12-07T19:22:05;5.10;61.50
32147;DHT22;32190;49.112;8.598;2023-12-07T19:27:59;5.00;61.50
32147;DHT22;32190;49.112;8.598;2023-12-07T19:33:49;5.10;61.50
32147;DHT22;32190;49.112;8.598;2023-12-07T19:39:40;5.10;61.60
32147;DHT22;32190;49.112;8.598;2023-12-07T19:45:40;5.20;61.50
32147;DHT22;32190;49.112;8.598;2023-12-07T19:51:31;5.20;61.40
32147;DHT22;32190;49.112;8.598;2023-12-07T19:57:29;5.20;61.40
32147;DHT22;32190;49.112;8.598;2023-12-07T20:03:20;5.30;61.20
32147;DHT22;32190;49.112;8.598;2023-12-07T20:09:10;5.30;61.50
32147;DHT22;32190;49.112;8.598;2023-12-07T20:15:04;5.30;61.30
32147;DHT22;32190;49.112;8.598;2023-12-07T20:20:55;5.30;61.40
32147;DHT22;32190;49.112;8.598;2023-12-07T20:26:49;5.30;61.30
32147;DHT22;32190;49.112;8.598;2023-12-07T20:32:39;5.40;61.20
32147;DHT22;32190;49.112;8.598;2023-12-07T20:38:30;5.40;61.20
32147;DHT22;32190;49.112;8.598;2023-12-07T20:44:21;5.40;61.10
32147;DHT22;32190;49.112;8.598;2023-12-07T20:50:11;5.40;61.00
32147;DHT22;32190;49.112;8.598;2023-12-07T20:56:02;5.50;61.00
32147;DHT22;32190;49.112;8.598;2023-12-07T21:01:54;5.50;60.90
32147;DHT22;32190;49.112;8.598;2023-12-07T21:07:44;5.50;60.90
32147;DHT22;32190;49.112;8.598;2023-12-07T21:13:35;5.40;60.80
32147;DHT22;32190;49.112;8.598;2023-12-07T21:19:27;5.40;61.00
32147;DHT22;32190;49.112;8.598;2023-12-07T21:25:19;5.40;60.90
32147;DHT22;32190;49.112;8.598;2023-12-07T21:31:10;5.40;61.00
32147;DHT22;32190;49.112;8.598;2023-12-07T21:37:00;5.40;60.90
32147;DHT22;32190;49.112;8.598;2023-12-07T21:42:51;5.40;60.90
32147;DHT22;32190;49.112;8.598;2023-12-07T21:48:42;5.40;60.80
32147;DHT22;32190;49.112;8.598;2023-12-07T21:54:32;5.30;60.80
32147;DHT22;32190;49.112;8.598;2023-12-07T22:00:24;5.30;61.00
32147;DHT22;32190;49.112;8.598;2023-12-07T22:06:25;5.20;61.20
32147;DHT22;32190;49.112;8.598;2023-12-07T22:12:16;5.30;61.00
32147;DHT22;32190;49.112;8.598;2023-12-07T22:18:07;5.30;61.20
32147;DHT22;32190;49.112;8.598;2023-12-07T22:23:57;5.30;61.20
32147;DHT22;32190;49.112;8.598;2023-12-07T22:29:48;5.40;61.10
32147;DHT22;32190;49.112;8.598;2023-12-07T22:35:39;5.50;61.00
32147;DHT22;32190;49.112;8.598;2023-12-07T22:41:29;5.50;60.80
32147;DHT22;32190;49.112;8.598;2023-12-07T22:47:20;5.60;60.80
32147;DHT22;32190;49.112;8.598;2023-12-07T22:53:10;5.60;60.70
32147;DHT22;32190;49.112;8.598;2023-12-07T22:59:01;5.60;61.30
32147;DHT22;32190;49.112;8.598;2023-12-07T23:04:52;5.70;60.70
32147;DHT22;32190;49.112;8.598;2023-12-07T23:10:42;5.70;60.50
32147;DHT22;32190;49.112;8.598;2023-12-07T23:16:33;5.80;61.20
32147;DHT22;32190;49.112;8.598;2023-12-07T23:22:24;5.80;60.40
32147;DHT22;32190;49.112;8.598;2023-12-07T23:28:14;5.80;60.30
32147;DHT22;32190;49.112;8.598;2023-12-07T23:34:05;5.90;60.30
32147;DHT22;32190;49.112;8.598;2023-12-07T23:39:55;5.90;60.30
32147;DHT22;32190;49.112;8.598;2023-12-07T23:45:46;5.90;60.30
32147;DHT22;32190;49.112;8.598;2023-12-07T23:51:37;5.90;60.30
32147;DHT22;32190;49.112;8.598;2023-12-07T23:57:27;6.00;60.20
